Time;durP1;ratioP1;P1;durP2;ratioP2;P2;SDS_P1;SDS_P2;PMS_P1;PMS_P2;Temp;Humidity;BMP_temperature;BMP_pressure;BME280_temperature;BME280_humidity;BME280_pressure;Samples;Min_cycle;Max_cycle;Signal;HPM_P1;HPM_P2
2023/10/16 06:15:20;;;;;;;;;;;;;;;7.46;100.00;99361.91;1817456;79;20870;-68
2023/10/16 06:17:41;;;;;;;;;;;;;;;7.47;100.00;99367.47;1793603;79;20157;-69
2023/10/16 06:20:14;;;;;;;;;;;;;;;7.52;100.00;99364.17;1802885;79;20413;-68
2023/10/16 06:22:37;;;;;;;;;;;;;;;7.55;100.00;99361.42;1800759;79;20126;-67
2023/10/16 06:25:10;;;;;;;;;;;;;;;7.58;100.00;99357.38;1791543;79;20120;-68
2023/10/16 06:30:07;;;;;;;;;;;;;;;7.65;100.00;99365.16;1790840;79;20170;-70
2023/10/16 06:32:37;;;;;;;;;;;;;;;7.68;100.00;99365.83;1791586;79;20477;-65
2023/10/16 06:35:07;;;;;;;;;;;;;;;7.74;100.00;99362.53;1793084;79;20099;-65
2023/10/16 06:37:38;;;;;;;;;;;;;;;7.78;100.00;99361.44;1777594;79;20107;-70
2023/10/16 06:45:19;;;;;;;;;;;;;;;7.90;100.00;99359.02;1798389;79;20096;-67
2023/10/16 06:47:47;;;;;;;;;;;;;;;7.93;100.00;99352.36;1794231;79;20137;-69
2023/10/16 06:53:00;;;;;;;;;;;;;;;8.00;100.00;99348.47;1789018;80;20396;-69
2023/10/16 06:55:27;;;;;;;;;;;;;;;8.02;100.00;99349.23;1790540;79;20481;-69
2023/10/16 07:02:56;;;;;;;;;;;;;;;8.07;100.00;99352.02;1792961;79;20110;-72
2023/10/16 07:05:24;;;;;;;;;;;;;;;8.10;100.00;99346.66;1801478;79;20343;-70
2023/10/16 07:10:24;;;;;;;;;;;;;;;8.15;100.00;99345.48;1799685;79;20093;-69
2023/10/16 07:12:58;;;;;;;;;;;;;;;8.19;100.00;99355.22;1799781;79;20100;-67
2023/10/16 07:15:29;;;;;;;;;;;;;;;8.22;100.00;99345.52;1789156;79;20134;-67
2023/10/16 07:17:57;;;;;;;;;;;;;;;8.25;100.00;99346.64;1810944;79;20388;-65
2023/10/16 07:20:29;;;;;;;;;;;;;;;8.29;100.00;99349.89;1786020;79;20201;-68
2023/10/16 07:22:56;;;;;;;;;;;;;;;8.32;100.00;99352.31;1770074;80;20483;-73
2023/10/16 07:25:25;;;;;;;;;;;;;;;8.36;100.00;99351.24;1773525;80;20160;-70
2023/10/16 07:27:58;;;;;;;;;;;;;;;8.41;100.00;99345.76;1728262;82;20426;-68
2023/10/16 07:30:24;;;;;;;;;;;;;;;8.47;100.00;99340.22;1725014;82;20117;-69
2023/10/16 07:32:51;;;;;;;;;;;;;;;8.52;100.00;99333.84;1723632;81;20191;-69
2023/10/16 07:35:18;;;;;;;;;;;;;;;8.59;100.00;99342.94;1708366;83;20139;-75
2023/10/16 07:47:48;;;;;;;;;;;;;;;8.78;100.00;99360.86;1780107;80;20371;-69
2023/10/16 07:50:15;;;;;;;;;;;;;;;8.81;100.00;99360.65;1787530;80;20376;-68
2023/10/16 08:05:17;;;;;;;;;;;;;;;9.28;100.00;99335.69;1792056;80;20107;-71
2023/10/16 08:07:47;;;;;;;;;;;;;;;9.44;100.00;99332.16;1769598;81;20092;-68
2023/10/16 08:28:18;;;;;;;;;;;;;;;10.57;100.00;99314.75;1809954;79;20107;-70
2023/10/16 08:38:25;;;;;;;;;;;;;;;10.85;100.00;99318.91;1743811;81;20115;-68
2023/10/16 08:40:57;;;;;;;;;;;;;;;10.89;100.00;99322.97;1786910;79;20113;-69
2023/10/16 08:43:29;;;;;;;;;;;;;;;10.91;100.00;99325.47;1797222;79;20124;-72
2023/10/16 08:45:49;;;;;;;;;;;;;;;10.93;100.00;99321.82;1781269;79;20098;-71
2023/10/16 08:50:58;;;;;;;;;;;;;;;11.10;100.00;99323.27;1795468;79;20379;-71
2023/10/16 12:52:40;;;;;;;;;;;;;;;10.14;91.19;99337.56;1793634;79;20184;-70
2023/10/16 12:55:09;;;;;;;;;;;;;;;10.13;91.66;99344.16;1793220;79;20135;-69
2023/10/16 13:10:26;;;;;;;;;;;;;;;9.89;94.47;99361.73;1802402;79;20098;-67
2023/10/16 13:12:56;;;;;;;;;;;;;;;9.85;95.09;99368.06;1787449;80;20139;-68
2023/10/16 13:15:29;;;;;;;;;;;;;;;9.79;95.54;99366.31;1789798;79;20131;-70
2023/10/16 13:17:54;;;;;;;;;;;;;;;9.72;96.22;99367.16;1799214;79;20112;-71
2023/10/16 13:20:26;;;;;;;;;;;;;;;9.66;96.94;99374.05;1793984;79;20135;-68
2023/10/16 13:22:52;;;;;;;;;;;;;;;9.62;97.51;99369.96;1803736;78;20139;-68
2023/10/16 13:27:58;;;;;;;;;;;;;;;9.53;98.86;99370.10;1812084;79;20097;-69
2023/10/16 13:30:26;;;;;;;;;;;;;;;9.50;99.65;99370.29;1787583;80;20120;-69
2023/10/16 13:32:54;;;;;;;;;;;;;;;9.48;100.00;99364.81;1765363;80;20112;-66
2023/10/16 13:35:22;;;;;;;;;;;;;;;9.46;100.00;99371.88;1787341;79;20127;-67
2023/10/16 13:37:50;;;;;;;;;;;;;;;9.46;100.00;99363.61;1805621;79;20389;-69
2023/10/16 13:42:56;;;;;;;;;;;;;;;9.48;100.00;99371.31;1801941;79;20396;-70
2023/10/16 13:45:25;;;;;;;;;;;;;;;9.46;100.00;99370.57;1795690;79;20264;-68
2023/10/16 13:50:28;;;;;;;;;;;;;;;9.44;100.00;99373.27;1794229;79;20140;-74
2023/10/16 13:52:53;;;;;;;;;;;;;;;9.42;100.00;99375.13;1787929;79;20162;-72
2023/10/16 13:55:24;;;;;;;;;;;;;;;9.41;100.00;99384.31;1786022;80;20155;-71
2023/10/16 13:57:54;;;;;;;;;;;;;;;9.40;100.00;99387.38;1786513;80;20133;-71
2023/10/16 14:02:48;;;;;;;;;;;;;;;9.37;100.00;99396.66;1787922;80;20123;-72
2023/10/16 14:05:14;;;;;;;;;;;;;;;9.33;100.00;99393.88;1790245;79;20122;-70
2023/10/16 14:07:43;;;;;;;;;;;;;;;9.28;100.00;99404.54;1790962;79;20099;-67
2023/10/16 14:10:13;;;;;;;;;;;;;;;9.21;100.00;99407.13;1811860;79;20086;-71
2023/10/16 14:12:38;;;;;;;;;;;;;;;9.16;100.00;99415.69;1796025;79;20119;-64
